sensor_id;sensor_type;location;lat;lon;timestamp;temperature;humidity
68274;SHT30;55104;47.356;19.448;2023-03-17T00:00:53;-0.74;73.22
68274;SHT30;55104;47.356;19.448;2023-03-17T00:03:55;-0.78;73.60
68274;SHT30;55104;47.356;19.448;2023-03-17T00:07:01;-0.81;73.58
68274;SHT30;55104;47.356;19.448;2023-03-17T00:10:05;-0.81;73.29
68274;SHT30;55104;47.356;19.448;2023-03-17T00:13:10;-0.85;73.62
68274;SHT30;55104;47.356;19.448;2023-03-17T00:16:22;-0.91;74.38
68274;SHT30;55104;47.356;19.448;2023-03-17T00:19:32;-0.93;74.63
68274;SHT30;55104;47.356;19.448;2023-03-17T00:22:35;-0.96;74.58
68274;SHT30;55104;47.356;19.448;2023-03-17T00:25:37;-1.02;74.34
68274;SHT30;55104;47.356;19.448;2023-03-17T00:28:43;-1.10;74.84
68274;SHT30;55104;47.356;19.448;2023-03-17T00:31:46;-1.13;75.11
68274;SHT30;55104;47.356;19.448;2023-03-17T00:34:48;-1.20;75.78
68274;SHT30;55104;47.356;19.448;2023-03-17T00:37:51;-1.23;75.12
68274;SHT30;55104;47.356;19.448;2023-03-17T00:40:54;-1.23;75.26
68274;SHT30;55104;47.356;19.448;2023-03-17T00:43:56;-1.30;75.27
68274;SHT30;55104;47.356;19.448;2023-03-17T00:46:58;-1.34;76.13
68274;SHT30;55104;47.356;19.448;2023-03-17T00:50:01;-1.36;76.64
68274;SHT30;55104;47.356;19.448;2023-03-17T00:53:05;-1.32;76.56
68274;SHT30;55104;47.356;19.448;2023-03-17T00:56:18;-1.34;76.94
68274;SHT30;55104;47.356;19.448;2023-03-17T00:59:39;-1.37;76.89
68274;SHT30;55104;47.356;19.448;2023-03-17T01:02:45;-1.40;76.59
68274;SHT30;55104;47.356;19.448;2023-03-17T01:05:48;-1.47;76.37
68274;SHT30;55104;47.356;19.448;2023-03-17T01:08:51;-1.60;77.02
68274;SHT30;55104;47.356;19.448;2023-03-17T01:11:53;-1.61;76.91
68274;SHT30;55104;47.356;19.448;2023-03-17T01:14:56;-1.64;76.89
68274;SHT30;55104;47.356;19.448;2023-03-17T01:18:00;-1.71;78.07
68274;SHT30;55104;47.356;19.448;2023-03-17T01:21:03;-1.67;78.02
68274;SHT30;55104;47.356;19.448;2023-03-17T01:24:05;-1.52;77.42
68274;SHT30;55104;47.356;19.448;2023-03-17T01:27:09;-1.58;78.07
68274;SHT30;55104;47.356;19.448;2023-03-17T01:30:28;-1.61;78.25
68274;SHT30;55104;47.356;19.448;2023-03-17T01:33:31;-1.61;77.33
68274;SHT30;55104;47.356;19.448;2023-03-17T01:36:33;-1.67;77.57
68274;SHT30;55104;47.356;19.448;2023-03-17T01:39:36;-1.68;77.02
68274;SHT30;55104;47.356;19.448;2023-03-17T01:42:39;-1.75;77.06
68274;SHT30;55104;47.356;19.448;2023-03-17T01:49:36;-1.82;76.95
68274;SHT30;55104;47.356;19.448;2023-03-17T01:52:39;-1.85;77.49
68274;SHT30;55104;47.356;19.448;2023-03-17T01:55:42;-1.90;77.57
68274;SHT30;55104;47.356;19.448;2023-03-17T01:58:49;-1.90;77.24
68274;SHT30;55104;47.356;19.448;2023-03-17T02:01:57;-1.92;77.25
68274;SHT30;55104;47.356;19.448;2023-03-17T02:05:03;-1.92;77.51
68274;SHT30;55104;47.356;19.448;2023-03-17T02:08:13;-1.98;77.80
68274;SHT30;55104;47.356;19.448;2023-03-17T02:11:15;-2.03;77.79
68274;SHT30;55104;47.356;19.448;2023-03-17T02:14:17;-2.00;78.10
68274;SHT30;55104;47.356;19.448;2023-03-17T02:17:22;-2.00;78.04
68274;SHT30;55104;47.356;19.448;2023-03-17T02:23:27;-2.02;79.49
68274;SHT30;55104;47.356;19.448;2023-03-17T02:26:32;-2.05;79.39
68274;SHT30;55104;47.356;19.448;2023-03-17T02:29:36;-2.05;79.20
68274;SHT30;55104;47.356;19.448;2023-03-17T02:32:38;-2.07;79.19
68274;SHT30;55104;47.356;19.448;2023-03-17T02:35:41;-2.09;79.34
68274;SHT30;55104;47.356;19.448;2023-03-17T02:38:43;-2.07;79.04
68274;SHT30;55104;47.356;19.448;2023-03-17T02:41:45;-2.11;78.98
68274;SHT30;55104;47.356;19.448;2023-03-17T02:44:47;-2.06;79.56
68274;SHT30;55104;47.356;19.448;2023-03-17T02:47:53;-2.07;79.50
68274;SHT30;55104;47.356;19.448;2023-03-17T02:50:56;-2.06;79.39
68274;SHT30;55104;47.356;19.448;2023-03-17T02:53:58;-2.05;79.53
68274;SHT30;55104;47.356;19.448;2023-03-17T02:57:00;-2.06;78.99
68274;SHT30;55104;47.356;19.448;2023-03-17T03:00:03;-2.05;78.82
68274;SHT30;55104;47.356;19.448;2023-03-17T03:03:05;-2.07;78.61
68274;SHT30;55104;47.356;19.448;2023-03-17T03:06:07;-2.05;78.55
68274;SHT30;55104;47.356;19.448;2023-03-17T03:09:09;-2.10;78.20
68274;SHT30;55104;47.356;19.448;2023-03-17T03:12:12;-2.17;78.04
68274;SHT30;55104;47.356;19.448;2023-03-17T03:15:14;-2.25;78.44
68274;SHT30;55104;47.356;19.448;2023-03-17T03:18:17;-2.27;79.20
68274;SHT30;55104;47.356;19.448;2023-03-17T03:21:19;-2.29;79.11
68274;SHT30;55104;47.356;19.448;2023-03-17T03:24:21;-2.29;79.18
68274;SHT30;55104;47.356;19.448;2023-03-17T03:27:23;-2.37;78.78
68274;SHT30;55104;47.356;19.448;2023-03-17T03:30:25;-2.41;78.66
68274;SHT30;55104;47.356;19.448;2023-03-17T03:33:28;-2.37;78.77
68274;SHT30;55104;47.356;19.448;2023-03-17T03:36:30;-2.43;79.72
68274;SHT30;55104;47.356;19.448;2023-03-17T03:39:33;-2.45;80.77
68274;SHT30;55104;47.356;19.448;2023-03-17T03:42:35;-2.51;80.58
68274;SHT30;55104;47.356;19.448;2023-03-17T03:45:37;-2.58;79.99
68274;SHT30;55104;47.356;19.448;2023-03-17T03:48:40;-2.61;79.64
68274;SHT30;55104;47.356;19.448;2023-03-17T03:51:42;-2.61;80.12
68274;SHT30;55104;47.356;19.448;2023-03-17T03:54:44;-2.62;80.15
68274;SHT30;55104;47.356;19.448;2023-03-17T03:57:46;-2.66;80.07
68274;SHT30;55104;47.356;19.448;2023-03-17T04:00:48;-2.65;79.80
68274;SHT30;55104;47.356;19.448;2023-03-17T04:03:50;-2.71;79.96
68274;SHT30;55104;47.356;19.448;2023-03-17T04:06:52;-2.79;79.89
68274;SHT30;55104;47.356;19.448;2023-03-17T04:09:54;-2.73;81.06
68274;SHT30;55104;47.356;19.448;2023-03-17T04:12:56;-2.71;81.07
68274;SHT30;55104;47.356;19.448;2023-03-17T04:16:00;-2.76;80.27
68274;SHT30;55104;47.356;19.448;2023-03-17T04:19:03;-2.78;80.25
68274;SHT30;55104;47.356;19.448;2023-03-17T04:22:05;-2.75;81.22
68274;SHT30;55104;47.356;19.448;2023-03-17T04:25:11;-2.82;80.94
68274;SHT30;55104;47.356;19.448;2023-03-17T04:28:15;-2.82;80.97
68274;SHT30;55104;47.356;19.448;2023-03-17T04:31:17;-2.83;81.57
68274;SHT30;55104;47.356;19.448;2023-03-17T04:34:19;-2.82;82.08
68274;SHT30;55104;47.356;19.448;2023-03-17T04:37:21;-2.83;81.60
68274;SHT30;55104;47.356;19.448;2023-03-17T04:40:23;-2.85;81.50
68274;SHT30;55104;47.356;19.448;2023-03-17T04:43:25;-2.82;81.21
68274;SHT30;55104;47.356;19.448;2023-03-17T04:46:27;-2.82;81.77
68274;SHT30;55104;47.356;19.448;2023-03-17T04:49:29;-2.85;81.27
68274;SHT30;55104;47.356;19.448;2023-03-17T04:52:32;-2.82;81.06
68274;SHT30;55104;47.356;19.448;2023-03-17T04:55:34;-2.86;80.93
68274;SHT30;55104;47.356;19.448;2023-03-17T04:58:37;-2.83;81.70
68274;SHT30;55104;47.356;19.448;2023-03-17T05:01:39;-2.79;81.95
68274;SHT30;55104;47.356;19.448;2023-03-17T05:04:41;-2.82;81.46
68274;SHT30;55104;47.356;19.448;2023-03-17T05:07:43;-2.82;81.23
68274;SHT30;55104;47.356;19.448;2023-03-17T05:10:46;-2.79;81.58
68274;SHT30;55104;47.356;19.448;2023-03-17T05:13:48;-2.76;81.15
68274;SHT30;55104;47.356;19.448;2023-03-17T05:16:50;-2.73;80.83
68274;SHT30;55104;47.356;19.448;2023-03-17T05:19:52;-2.75;81.05
68274;SHT30;55104;47.356;19.448;2023-03-17T05:22:54;-2.72;82.00
68274;SHT30;55104;47.356;19.448;2023-03-17T05:25:56;-2.60;82.10
68274;SHT30;55104;47.356;19.448;2023-03-17T05:28:59;-2.54;81.41
68274;SHT30;55104;47.356;19.448;2023-03-17T05:32:01;-2.50;81.15
68274;SHT30;55104;47.356;19.448;2023-03-17T05:35:03;-2.41;81.05
68274;SHT30;55104;47.356;19.448;2023-03-17T05:38:06;-2.36;80.50
68274;SHT30;55104;47.356;19.448;2023-03-17T05:41:09;-2.29;80.57
68274;SHT30;55104;47.356;19.448;2023-03-17T05:44:12;-2.19;81.30
68274;SHT30;55104;47.356;19.448;2023-03-17T05:47:14;-2.02;81.30
68274;SHT30;55104;47.356;19.448;2023-03-17T05:50:16;-1.92;80.68
68274;SHT30;55104;47.356;19.448;2023-03-17T05:53:18;-1.82;80.19
68274;SHT30;55104;47.356;19.448;2023-03-17T05:56:20;-1.64;80.48
68274;SHT30;55104;47.356;19.448;2023-03-17T05:59:22;-1.44;80.36
68274;SHT30;55104;47.356;19.448;2023-03-17T06:02:24;-1.33;79.94
68274;SHT30;55104;47.356;19.448;2023-03-17T06:05:26;-1.15;79.96
68274;SHT30;55104;47.356;19.448;2023-03-17T06:08:28;-0.97;79.92
68274;SHT30;55104;47.356;19.448;2023-03-17T06:11:31;-0.72;78.82
68274;SHT30;55104;47.356;19.448;2023-03-17T06:14:33;-0.43;77.48
68274;SHT30;55104;47.356;19.448;2023-03-17T06:17:35;-0.07;75.82
68274;SHT30;55104;47.356;19.448;2023-03-17T06:20:38;0.25;74.27
68274;SHT30;55104;47.356;19.448;2023-03-17T06:23:40;0.94;70.81
68274;SHT30;55104;47.356;19.448;2023-03-17T06:26:42;1.47;68.11
68274;SHT30;55104;47.356;19.448;2023-03-17T06:29:44;1.93;66.61
68274;SHT30;55104;47.356;19.448;2023-03-17T06:32:47;2.24;65.01
68274;SHT30;55104;47.356;19.448;2023-03-17T06:35:49;2.43;64.30
68274;SHT30;55104;47.356;19.448;2023-03-17T06:38:52;2.54;64.48
68274;SHT30;55104;47.356;19.448;2023-03-17T06:41:54;2.57;65.01
68274;SHT30;55104;47.356;19.448;2023-03-17T06:44:57;2.61;65.81
68274;SHT30;55104;47.356;19.448;2023-03-17T06:47:58;2.79;64.83
68274;SHT30;55104;47.356;19.448;2023-03-17T06:51:00;2.95;64.70
68274;SHT30;55104;47.356;19.448;2023-03-17T06:54:03;3.08;62.77
68274;SHT30;55104;47.356;19.448;2023-03-17T06:57:05;3.23;62.76
68274;SHT30;55104;47.356;19.448;2023-03-17T07:00:08;3.30;62.59
68274;SHT30;55104;47.356;19.448;2023-03-17T07:03:10;3.47;62.43
68274;SHT30;55104;47.356;19.448;2023-03-17T07:06:12;3.60;60.94
68274;SHT30;55104;47.356;19.448;2023-03-17T07:09:15;3.67;60.68
68274;SHT30;55104;47.356;19.448;2023-03-17T07:12:18;3.83;60.87
68274;SHT30;55104;47.356;19.448;2023-03-17T07:15:21;3.88;61.09
68274;SHT30;55104;47.356;19.448;2023-03-17T07:18:23;3.98;60.69
68274;SHT30;55104;47.356;19.448;2023-03-17T07:21:25;4.11;60.24
68274;SHT30;55104;47.356;19.448;2023-03-17T07:24:27;4.21;59.30
68274;SHT30;55104;47.356;19.448;2023-03-17T07:27:29;4.38;58.96
68274;SHT30;55104;47.356;19.448;2023-03-17T07:30:31;4.48;58.84
68274;SHT30;55104;47.356;19.448;2023-03-17T07:33:34;4.56;58.98
68274;SHT30;55104;47.356;19.448;2023-03-17T07:36:36;4.74;58.78
68274;SHT30;55104;47.356;19.448;2023-03-17T07:39:38;4.94;58.45
68274;SHT30;55104;47.356;19.448;2023-03-17T07:42:40;5.11;58.21
68274;SHT30;55104;47.356;19.448;2023-03-17T07:45:43;5.26;56.94
68274;SHT30;55104;47.356;19.448;2023-03-17T07:48:46;5.35;56.47
68274;SHT30;55104;47.356;19.448;2023-03-17T07:51:49;5.46;55.95
68274;SHT30;55104;47.356;19.448;2023-03-17T07:54:51;5.46;55.11
68274;SHT30;55104;47.356;19.448;2023-03-17T07:57:53;5.64;55.90
68274;SHT30;55104;47.356;19.448;2023-03-17T08:00:56;5.83;54.88
68274;SHT30;55104;47.356;19.448;2023-03-17T08:03:58;5.91;54.86
68274;SHT30;55104;47.356;19.448;2023-03-17T08:07:01;5.88;54.02
68274;SHT30;55104;47.356;19.448;2023-03-17T08:10:05;6.01;54.00
68274;SHT30;55104;47.356;19.448;2023-03-17T08:13:08;6.09;54.26
68274;SHT30;55104;47.356;19.448;2023-03-17T08:16:10;6.30;54.53
68274;SHT30;55104;47.356;19.448;2023-03-17T08:19:12;6.33;52.92
68274;SHT30;55104;47.356;19.448;2023-03-17T08:22:14;6.46;54.87
68274;SHT30;55104;47.356;19.448;2023-03-17T08:25:16;6.56;52.65
68274;SHT30;55104;47.356;19.448;2023-03-17T08:28:18;6.49;53.02
68274;SHT30;55104;47.356;19.448;2023-03-17T08:31:21;6.58;53.77
68274;SHT30;55104;47.356;19.448;2023-03-17T08:34:23;6.92;52.80
68274;SHT30;55104;47.356;19.448;2023-03-17T08:37:26;7.08;47.81
68274;SHT30;55104;47.356;19.448;2023-03-17T08:40:29;7.29;50.03
68274;SHT30;55104;47.356;19.448;2023-03-17T08:43:32;7.42;48.38
68274;SHT30;55104;47.356;19.448;2023-03-17T08:46:35;7.53;46.96
68274;SHT30;55104;47.356;19.448;2023-03-17T08:49:37;7.62;44.99
68274;SHT30;55104;47.356;19.448;2023-03-17T08:52:39;7.73;45.00
68274;SHT30;55104;47.356;19.448;2023-03-17T08:55:42;7.85;46.09
68274;SHT30;55104;47.356;19.448;2023-03-17T08:58:44;8.05;44.91
68274;SHT30;55104;47.356;19.448;2023-03-17T09:01:46;8.08;45.66
68274;SHT30;55104;47.356;19.448;2023-03-17T09:04:48;8.13;47.33
68274;SHT30;55104;47.356;19.448;2023-03-17T09:07:50;8.36;46.01
68274;SHT30;55104;47.356;19.448;2023-03-17T09:10:53;8.67;44.68
68274;SHT30;55104;47.356;19.448;2023-03-17T09:13:55;8.67;44.42
68274;SHT30;55104;47.356;19.448;2023-03-17T09:16:57;8.81;44.36
68274;SHT30;55104;47.356;19.448;2023-03-17T09:20:00;8.83;42.99
68274;SHT30;55104;47.356;19.448;2023-03-17T09:23:06;8.87;41.83
68274;SHT30;55104;47.356;19.448;2023-03-17T09:26:09;8.73;42.10
68274;SHT30;55104;47.356;19.448;2023-03-17T09:29:12;8.70;41.36
68274;SHT30;55104;47.356;19.448;2023-03-17T09:32:14;9.07;43.65
68274;SHT30;55104;47.356;19.448;2023-03-17T09:35:17;9.07;40.29
68274;SHT30;55104;47.356;19.448;2023-03-17T09:38:19;8.73;40.38
68274;SHT30;55104;47.356;19.448;2023-03-17T09:44:59;9.07;39.92
68274;SHT30;55104;47.356;19.448;2023-03-17T09:48:28;9.23;40.50
68274;SHT30;55104;47.356;19.448;2023-03-17T09:51:33;9.56;41.37
68274;SHT30;55104;47.356;19.448;2023-03-17T09:54:37;9.64;39.77
68274;SHT30;55104;47.356;19.448;2023-03-17T09:57:39;9.80;39.74
68274;SHT30;55104;47.356;19.448;2023-03-17T10:00:42;10.04;38.13
68274;SHT30;55104;47.356;19.448;2023-03-17T10:03:46;10.11;38.56
68274;SHT30;55104;47.356;19.448;2023-03-17T10:06:48;10.21;37.21
68274;SHT30;55104;47.356;19.448;2023-03-17T10:16:17;10.16;38.51
68274;SHT30;55104;47.356;19.448;2023-03-17T10:22:44;10.33;38.57
68274;SHT30;55104;47.356;19.448;2023-03-17T10:25:46;10.31;36.67
68274;SHT30;55104;47.356;19.448;2023-03-17T10:28:49;10.33;38.29
68274;SHT30;55104;47.356;19.448;2023-03-17T10:31:52;10.40;38.35
68274;SHT30;55104;47.356;19.448;2023-03-17T10:34:59;10.70;38.52
68274;SHT30;55104;47.356;19.448;2023-03-17T10:38:21;11.00;37.61
68274;SHT30;55104;47.356;19.448;2023-03-17T10:41:34;10.74;36.09
68274;SHT30;55104;47.356;19.448;2023-03-17T10:44:50;10.83;38.01
68274;SHT30;55104;47.356;19.448;2023-03-17T10:47:55;11.15;38.43
68274;SHT30;55104;47.356;19.448;2023-03-17T10:50:58;10.95;36.26
68274;SHT30;55104;47.356;19.448;2023-03-17T10:54:08;10.93;38.03
68274;SHT30;55104;47.356;19.448;2023-03-17T10:57:11;11.08;37.26
68274;SHT30;55104;47.356;19.448;2023-03-17T11:00:16;11.12;37.54
68274;SHT30;55104;47.356;19.448;2023-03-17T11:03:30;11.21;37.14
68274;SHT30;55104;47.356;19.448;2023-03-17T11:06:41;11.36;37.19
68274;SHT30;55104;47.356;19.448;2023-03-17T11:09:49;11.33;37.26
68274;SHT30;55104;47.356;19.448;2023-03-17T11:12:59;11.44;36.51
68274;SHT30;55104;47.356;19.448;2023-03-17T11:16:19;11.35;36.67
68274;SHT30;55104;47.356;19.448;2023-03-17T11:22:39;11.56;34.97
68274;SHT30;55104;47.356;19.448;2023-03-17T11:25:44;11.33;35.72
68274;SHT30;55104;47.356;19.448;2023-03-17T11:29:22;11.21;35.10
68274;SHT30;55104;47.356;19.448;2023-03-17T11:39:23;11.47;36.71
68274;SHT30;55104;47.356;19.448;2023-03-17T11:42:31;11.56;37.99
68274;SHT30;55104;47.356;19.448;2023-03-17T11:55:27;11.01;35.66
68274;SHT30;55104;47.356;19.448;2023-03-17T11:58:41;11.39;37.58
68274;SHT30;55104;47.356;19.448;2023-03-17T12:01:49;11.91;37.20
68274;SHT30;55104;47.356;19.448;2023-03-17T12:08:40;12.02;37.12
68274;SHT30;55104;47.356;19.448;2023-03-17T12:11:47;12.04;36.92
68274;SHT30;55104;47.356;19.448;2023-03-17T12:14:50;11.86;36.43
68274;SHT30;55104;47.356;19.448;2023-03-17T12:18:03;12.15;37.39
68274;SHT30;55104;47.356;19.448;2023-03-17T12:21:31;12.22;36.87
68274;SHT30;55104;47.356;19.448;2023-03-17T12:25:02;12.07;37.06
68274;SHT30;55104;47.356;19.448;2023-03-17T12:28:21;12.17;36.15
68274;SHT30;55104;47.356;19.448;2023-03-17T12:31:40;12.35;35.92
68274;SHT30;55104;47.356;19.448;2023-03-17T12:35:17;12.32;36.42
68274;SHT30;55104;47.356;19.448;2023-03-17T12:38:38;12.13;34.67
68274;SHT30;55104;47.356;19.448;2023-03-17T12:41:54;11.88;34.82
68274;SHT30;55104;47.356;19.448;2023-03-17T12:55:16;12.17;36.62
68274;SHT30;55104;47.356;19.448;2023-03-17T12:58:38;11.94;34.04
68274;SHT30;55104;47.356;19.448;2023-03-17T13:02:12;11.90;36.30
68274;SHT30;55104;47.356;19.448;2023-03-17T13:05:27;12.05;35.20
68274;SHT30;55104;47.356;19.448;2023-03-17T13:08:34;12.15;35.73
68274;SHT30;55104;47.356;19.448;2023-03-17T13:14:46;12.07;35.84
68274;SHT30;55104;47.356;19.448;2023-03-17T13:17:48;11.86;35.06
68274;SHT30;55104;47.356;19.448;2023-03-17T13:24:18;11.98;35.07
68274;SHT30;55104;47.356;19.448;2023-03-17T13:33:52;12.22;35.00
68274;SHT30;55104;47.356;19.448;2023-03-17T13:37:19;12.08;34.83
68274;SHT30;55104;47.356;19.448;2023-03-17T13:47:34;12.02;35.40
68274;SHT30;55104;47.356;19.448;2023-03-17T13:50:38;12.10;36.07
68274;SHT30;55104;47.356;19.448;2023-03-17T13:53:45;12.13;35.52
68274;SHT30;55104;47.356;19.448;2023-03-17T13:56:49;11.95;35.54
68274;SHT30;55104;47.356;19.448;2023-03-17T14:06:18;12.01;34.79
68274;SHT30;55104;47.356;19.448;2023-03-17T14:09:33;12.01;34.37
68274;SHT30;55104;47.356;19.448;2023-03-17T14:12:49;12.18;35.55
68274;SHT30;55104;47.356;19.448;2023-03-17T14:16:31;12.10;35.44
68274;SHT30;55104;47.356;19.448;2023-03-17T14:19:34;11.94;34.79
68274;SHT30;55104;47.356;19.448;2023-03-17T14:22:48;11.55;34.04
68274;SHT30;55104;47.356;19.448;2023-03-17T14:25:57;11.66;35.20
68274;SHT30;55104;47.356;19.448;2023-03-17T14:29:01;11.55;34.53
68274;SHT30;55104;47.356;19.448;2023-03-17T14:32:11;11.33;33.96
68274;SHT30;55104;47.356;19.448;2023-03-17T14:35:14;11.46;35.01
68274;SHT30;55104;47.356;19.448;2023-03-17T14:38:19;11.47;35.00
68274;SHT30;55104;47.356;19.448;2023-03-17T14:41:23;11.50;34.00
68274;SHT30;55104;47.356;19.448;2023-03-17T14:44:26;11.70;35.18
68274;SHT30;55104;47.356;19.448;2023-03-17T14:47:34;11.59;34.52
68274;SHT30;55104;47.356;19.448;2023-03-17T14:50:50;11.52;35.55
68274;SHT30;55104;47.356;19.448;2023-03-17T14:53:58;11.52;34.34
68274;SHT30;55104;47.356;19.448;2023-03-17T14:57:05;11.49;35.86
68274;SHT30;55104;47.356;19.448;2023-03-17T15:03:21;11.36;35.70
68274;SHT30;55104;47.356;19.448;2023-03-17T15:06:29;11.32;36.33
68274;SHT30;55104;47.356;19.448;2023-03-17T15:12:34;11.12;36.73
68274;SHT30;55104;47.356;19.448;2023-03-17T15:15:37;11.10;36.37
68274;SHT30;55104;47.356;19.448;2023-03-17T15:18:42;11.01;37.10
68274;SHT30;55104;47.356;19.448;2023-03-17T15:21:45;11.01;36.70
68274;SHT30;55104;47.356;19.448;2023-03-17T15:25:17;10.84;35.81
68274;SHT30;55104;47.356;19.448;2023-03-17T15:28:27;10.91;37.13
68274;SHT30;55104;47.356;19.448;2023-03-17T15:31:30;10.80;36.83
68274;SHT30;55104;47.356;19.448;2023-03-17T15:34:32;10.68;36.34
68274;SHT30;55104;47.356;19.448;2023-03-17T15:37:34;10.60;38.09
68274;SHT30;55104;47.356;19.448;2023-03-17T15:40:36;10.63;39.04
68274;SHT30;55104;47.356;19.448;2023-03-17T15:43:38;10.66;37.91
68274;SHT30;55104;47.356;19.448;2023-03-17T15:46:40;10.70;38.57
68274;SHT30;55104;47.356;19.448;2023-03-17T15:49:43;10.56;39.19
68274;SHT30;55104;47.356;19.448;2023-03-17T15:52:45;10.50;40.12
68274;SHT30;55104;47.356;19.448;2023-03-17T15:55:48;10.36;39.90
68274;SHT30;55104;47.356;19.448;2023-03-17T15:58:50;10.21;40.81
68274;SHT30;55104;47.356;19.448;2023-03-17T16:01:53;10.04;40.62
68274;SHT30;55104;47.356;19.448;2023-03-17T16:04:57;9.91;40.73
68274;SHT30;55104;47.356;19.448;2023-03-17T16:08:00;9.80;41.00
68274;SHT30;55104;47.356;19.448;2023-03-17T16:11:02;9.61;40.65
68274;SHT30;55104;47.356;19.448;2023-03-17T16:14:04;9.40;42.25
68274;SHT30;55104;47.356;19.448;2023-03-17T16:17:14;9.33;41.78
68274;SHT30;55104;47.356;19.448;2023-03-17T16:20:29;9.21;41.79
68274;SHT30;55104;47.356;19.448;2023-03-17T16:23:34;9.05;41.90
68274;SHT30;55104;47.356;19.448;2023-03-17T16:26:38;8.92;41.93
68274;SHT30;55104;47.356;19.448;2023-03-17T16:29:40;8.75;42.61
68274;SHT30;55104;47.356;19.448;2023-03-17T16:32:42;8.57;43.23
68274;SHT30;55104;47.356;19.448;2023-03-17T16:35:44;8.42;43.97
68274;SHT30;55104;47.356;19.448;2023-03-17T16:38:47;8.32;44.46
68274;SHT30;55104;47.356;19.448;2023-03-17T16:41:50;8.15;45.03
68274;SHT30;55104;47.356;19.448;2023-03-17T16:44:54;7.97;45.38
68274;SHT30;55104;47.356;19.448;2023-03-17T16:47:57;7.82;46.13
68274;SHT30;55104;47.356;19.448;2023-03-17T16:51:00;7.63;47.23
68274;SHT30;55104;47.356;19.448;2023-03-17T16:54:02;7.45;47.61
68274;SHT30;55104;47.356;19.448;2023-03-17T16:57:04;7.27;47.54
68274;SHT30;55104;47.356;19.448;2023-03-17T17:00:14;7.15;47.81
68274;SHT30;55104;47.356;19.448;2023-03-17T17:03:18;7.05;47.29
68274;SHT30;55104;47.356;19.448;2023-03-17T17:06:21;6.99;47.31
68274;SHT30;55104;47.356;19.448;2023-03-17T17:09:23;6.87;47.42
68274;SHT30;55104;47.356;19.448;2023-03-17T17:12:25;6.80;49.15
68274;SHT30;55104;47.356;19.448;2023-03-17T17:15:28;6.79;48.19
68274;SHT30;55104;47.356;19.448;2023-03-17T17:18:31;6.81;48.26
68274;SHT30;55104;47.356;19.448;2023-03-17T17:21:33;6.84;48.54
68274;SHT30;55104;47.356;19.448;2023-03-17T17:24:35;6.80;49.10
68274;SHT30;55104;47.356;19.448;2023-03-17T17:27:39;6.71;49.52
68274;SHT30;55104;47.356;19.448;2023-03-17T17:30:43;6.61;50.14
68274;SHT30;55104;47.356;19.448;2023-03-17T17:33:48;6.56;49.55
68274;SHT30;55104;47.356;19.448;2023-03-17T17:36:50;6.52;49.49
68274;SHT30;55104;47.356;19.448;2023-03-17T17:39:53;6.42;50.23
68274;SHT30;55104;47.356;19.448;2023-03-17T17:42:56;6.33;50.52
68274;SHT30;55104;47.356;19.448;2023-03-17T17:45:58;6.22;51.12
68274;SHT30;55104;47.356;19.448;2023-03-17T17:49:02;6.04;51.45
68274;SHT30;55104;47.356;19.448;2023-03-17T17:52:05;5.97;51.99
68274;SHT30;55104;47.356;19.448;2023-03-17T17:55:07;5.88;52.22
68274;SHT30;55104;47.356;19.448;2023-03-17T17:58:21;5.73;52.99
68274;SHT30;55104;47.356;19.448;2023-03-17T18:01:23;5.61;52.99
68274;SHT30;55104;47.356;19.448;2023-03-17T18:04:25;5.50;53.92
68274;SHT30;55104;47.356;19.448;2023-03-17T18:07:27;5.39;53.75
68274;SHT30;55104;47.356;19.448;2023-03-17T18:10:30;5.38;54.55
68274;SHT30;55104;47.356;19.448;2023-03-17T18:13:32;5.26;54.47
68274;SHT30;55104;47.356;19.448;2023-03-17T18:16:37;5.16;54.40
68274;SHT30;55104;47.356;19.448;2023-03-17T18:19:39;5.07;55.45
68274;SHT30;55104;47.356;19.448;2023-03-17T18:22:41;4.98;55.50
68274;SHT30;55104;47.356;19.448;2023-03-17T18:25:44;4.88;56.10
68274;SHT30;55104;47.356;19.448;2023-03-17T18:28:46;4.81;56.62
68274;SHT30;55104;47.356;19.448;2023-03-17T18:31:51;4.71;57.51
68274;SHT30;55104;47.356;19.448;2023-03-17T18:34:55;4.57;58.09
68274;SHT30;55104;47.356;19.448;2023-03-17T18:37:59;4.43;57.84
68274;SHT30;55104;47.356;19.448;2023-03-17T18:41:02;4.42;57.91
68274;SHT30;55104;47.356;19.448;2023-03-17T18:44:04;4.32;57.54
68274;SHT30;55104;47.356;19.448;2023-03-17T18:47:08;4.28;57.84
68274;SHT30;55104;47.356;19.448;2023-03-17T18:50:12;4.16;58.56
68274;SHT30;55104;47.356;19.448;2023-03-17T18:53:15;4.15;58.86
68274;SHT30;55104;47.356;19.448;2023-03-17T18:56:17;4.11;58.85
68274;SHT30;55104;47.356;19.448;2023-03-17T18:59:19;4.16;58.27
68274;SHT30;55104;47.356;19.448;2023-03-17T19:02:21;4.16;58.24
68274;SHT30;55104;47.356;19.448;2023-03-17T19:05:24;4.13;58.32
68274;SHT30;55104;47.356;19.448;2023-03-17T19:08:26;4.08;58.07
68274;SHT30;55104;47.356;19.448;2023-03-17T19:11:28;4.06;58.07
68274;SHT30;55104;47.356;19.448;2023-03-17T19:14:30;4.01;58.79
68274;SHT30;55104;47.356;19.448;2023-03-17T19:17:33;3.95;58.61
68274;SHT30;55104;47.356;19.448;2023-03-17T19:20:35;3.90;59.17
68274;SHT30;55104;47.356;19.448;2023-03-17T19:23:38;3.83;59.92
68274;SHT30;55104;47.356;19.448;2023-03-17T19:26:42;3.73;60.45
68274;SHT30;55104;47.356;19.448;2023-03-17T19:29:44;3.66;60.95
68274;SHT30;55104;47.356;19.448;2023-03-17T19:32:46;3.50;61.51
68274;SHT30;55104;47.356;19.448;2023-03-17T19:35:56;3.39;61.75
68274;SHT30;55104;47.356;19.448;2023-03-17T19:38:59;3.28;62.12
68274;SHT30;55104;47.356;19.448;2023-03-17T19:42:01;3.16;62.88
68274;SHT30;55104;47.356;19.448;2023-03-17T19:45:04;3.12;63.40
68274;SHT30;55104;47.356;19.448;2023-03-17T19:48:06;3.04;64.02
68274;SHT30;55104;47.356;19.448;2023-03-17T19:51:08;2.98;64.05
68274;SHT30;55104;47.356;19.448;2023-03-17T19:54:10;2.92;64.29
68274;SHT30;55104;47.356;19.448;2023-03-17T19:57:15;2.87;64.52
68274;SHT30;55104;47.356;19.448;2023-03-17T20:00:18;2.77;64.46
68274;SHT30;55104;47.356;19.448;2023-03-17T20:03:21;2.74;65.07
68274;SHT30;55104;47.356;19.448;2023-03-17T20:06:27;2.70;65.26
68274;SHT30;55104;47.356;19.448;2023-03-17T20:09:29;2.63;65.12
68274;SHT30;55104;47.356;19.448;2023-03-17T20:12:33;2.60;65.37
68274;SHT30;55104;47.356;19.448;2023-03-17T20:15:35;2.54;65.32
68274;SHT30;55104;47.356;19.448;2023-03-17T20:18:37;2.56;64.54
68274;SHT30;55104;47.356;19.448;2023-03-17T20:21:40;2.58;64.43
68274;SHT30;55104;47.356;19.448;2023-03-17T20:24:42;2.57;65.04
68274;SHT30;55104;47.356;19.448;2023-03-17T20:27:45;2.63;65.25
68274;SHT30;55104;47.356;19.448;2023-03-17T20:30:47;2.57;65.14
68274;SHT30;55104;47.356;19.448;2023-03-17T20:33:50;2.46;65.28
68274;SHT30;55104;47.356;19.448;2023-03-17T20:36:53;2.36;65.38
68274;SHT30;55104;47.356;19.448;2023-03-17T20:39:55;2.32;65.55
68274;SHT30;55104;47.356;19.448;2023-03-17T20:42:58;2.30;65.19